createdAt,value
2023-03-18T00:04:10.177Z,6.22
2023-03-18T00:09:13.670Z,7.05
2023-03-18T00:14:16.201Z,6.70
2023-03-18T00:19:18.657Z,6.55
2023-03-18T00:24:20.801Z,5.85
2023-03-18T00:29:24.904Z,6.65
2023-03-18T00:34:27.941Z,5.88
2023-03-18T00:39:32.932Z,5.03
2023-03-18T00:44:35.042Z,3.17
2023-03-18T00:49:37.699Z,4.53
2023-03-18T00:54:40.168Z,3.13
2023-03-18T00:59:42.793Z,2.72
2023-03-18T01:04:45.509Z,3.30
2023-03-18T01:09:48.184Z,5.70
2023-03-18T01:14:50.199Z,3.63
2023-03-18T01:19:52.407Z,3.50
2023-03-18T01:24:54.445Z,3.20
2023-03-18T01:30:06.960Z,2.75
2023-03-18T01:35:09.666Z,4.32
2023-03-18T01:40:13.480Z,4.10
2023-03-18T01:45:19.465Z,3.15
2023-03-18T01:50:28.560Z,3.17
2023-03-18T01:55:33.360Z,2.83
2023-03-18T02:00:39.924Z,4.47
2023-03-18T02:05:43.374Z,3.08
2023-03-18T02:10:46.030Z,4.00
2023-03-18T02:16:05.344Z,3.63
2023-03-18T02:21:33.212Z,2.17
2023-03-18T02:27:05.086Z,3.50
2023-03-18T02:32:15.364Z,3.67
2023-03-18T02:37:17.413Z,2.47
2023-03-18T02:42:32.206Z,1.90
2023-03-18T02:47:36.782Z,4.63
2023-03-18T02:52:39.997Z,6.90
2023-03-18T02:57:43.205Z,5.20
2023-03-18T03:02:45.657Z,4.25
2023-03-18T03:07:48.232Z,2.80
2023-03-18T03:12:50.444Z,3.90
2023-03-18T03:17:53.722Z,2.50
2023-03-18T03:22:55.810Z,1.92
2023-03-18T03:27:58.470Z,2.22
2023-03-18T03:33:01.550Z,4.57
2023-03-18T03:38:03.814Z,3.10
2023-03-18T03:43:06.687Z,1.48
2023-03-18T03:48:09.528Z,1.00
2023-03-18T03:53:12.535Z,3.22
2023-03-18T03:58:14.923Z,2.53
2023-03-18T04:03:18.794Z,1.00
2023-03-18T04:08:21.762Z,1.50
2023-03-18T04:13:24.815Z,1.63
2023-03-18T04:18:29.150Z,1.20
2023-03-18T04:23:33.173Z,0.88
2023-03-18T04:28:35.432Z,2.88
2023-03-18T04:33:39.911Z,5.38
2023-03-18T04:38:42.526Z,5.28
2023-03-18T04:43:44.770Z,4.20
2023-03-18T04:48:47.461Z,2.25
2023-03-18T04:53:49.721Z,3.38
2023-03-18T04:58:51.961Z,3.53
2023-03-18T05:03:59.623Z,1.90
2023-03-18T05:09:10.300Z,2.90
2023-03-18T05:14:12.379Z,2.20
2023-03-18T05:19:19.761Z,2.22
2023-03-18T05:24:38.948Z,0.68
2023-03-18T05:29:41.860Z,1.95
2023-03-18T05:34:54.625Z,3.85
2023-03-18T05:39:57.392Z,1.77
2023-03-18T05:45:00.113Z,1.92
2023-03-18T05:50:03.798Z,1.38
2023-03-18T05:55:08.154Z,2.63
2023-03-18T06:00:15.526Z,1.80
2023-03-18T06:05:18.231Z,1.75
2023-03-18T06:10:23.383Z,1.25
2023-03-18T06:15:26.559Z,1.08
2023-03-18T06:20:28.892Z,2.38
2023-03-18T06:25:32.258Z,1.95
2023-03-18T06:30:34.482Z,1.55
2023-03-18T06:35:36.793Z,2.70
2023-03-18T06:40:39.121Z,4.00
2023-03-18T06:45:42.776Z,2.67
2023-03-18T06:50:45.723Z,2.95
2023-03-18T06:55:57.398Z,5.32
2023-03-18T07:01:04.107Z,7.68
2023-03-18T07:06:14.079Z,13.85
2023-03-18T07:11:17.591Z,13.33
2023-03-18T07:16:21.173Z,8.02
2023-03-18T07:21:23.618Z,6.53
2023-03-18T07:26:26.402Z,3.90
2023-03-18T07:31:28.530Z,5.82
2023-03-18T07:36:30.810Z,5.43
2023-03-18T07:41:33.101Z,7.95
2023-03-18T07:46:35.182Z,7.10
2023-03-18T07:51:37.463Z,6.75
2023-03-18T07:56:39.743Z,3.80
2023-03-18T08:01:42.029Z,4.10
2023-03-18T08:06:44.145Z,3.08
2023-03-18T08:11:47.013Z,3.20
2023-03-18T08:16:49.698Z,3.05
2023-03-18T08:21:51.710Z,2.80
2023-03-18T08:26:54.026Z,2.25
2023-03-18T08:31:57.157Z,3.78
2023-03-18T08:36:59.605Z,1.65
2023-03-18T08:42:05.663Z,1.58
2023-03-18T08:47:08.319Z,1.92
2023-03-18T08:52:10.605Z,2.20
2023-03-18T08:57:12.725Z,2.42
2023-03-18T09:02:18.601Z,1.83
2023-03-18T09:12:22.688Z,1.48
2023-03-18T09:17:35.887Z,5.07
2023-03-18T09:22:47.368Z,1.33
2023-03-18T09:27:49.395Z,1.90
2023-03-18T09:32:51.420Z,1.25
2023-03-18T09:37:54.031Z,3.42
2023-03-18T09:43:09.929Z,0.40
2023-03-18T09:48:45.326Z,2.20
2023-03-18T09:53:58.599Z,3.05
2023-03-18T09:59:18.417Z,1.77
2023-03-18T10:04:48.370Z,1.17
2023-03-18T10:09:59.457Z,2.70
2023-03-18T10:15:26.797Z,2.70
2023-03-18T10:21:07.098Z,4.65
2023-03-18T10:26:33.303Z,1.77
2023-03-18T10:31:58.946Z,0.80
2023-03-18T10:37:11.004Z,1.03
2023-03-18T10:42:24.554Z,2.42
2023-03-18T10:47:34.089Z,2.60
2023-03-18T10:52:45.479Z,4.03
2023-03-18T10:57:47.765Z,1.25
2023-03-18T11:02:50.219Z,1.30
2023-03-18T11:08:05.312Z,3.78
2023-03-18T11:13:07.396Z,2.17
2023-03-18T11:18:19.142Z,5.25
2023-03-18T11:23:48.541Z,1.40
2023-03-18T11:28:56.748Z,3.92
2023-03-18T11:33:59.316Z,1.38
2023-03-18T11:39:06.887Z,2.70
2023-03-18T11:44:18.713Z,2.58
2023-03-18T11:49:24.320Z,2.17
2023-03-18T11:54:42.625Z,2.53
2023-03-18T11:59:54.691Z,3.03
2023-03-18T12:05:02.941Z,4.03
2023-03-18T12:10:19.738Z,4.03
2023-03-18T12:15:36.424Z,2.30
2023-03-18T12:20:47.086Z,2.63
2023-03-18T12:26:34.697Z,2.80
2023-03-18T12:32:11.734Z,2.65
2023-03-18T12:37:32.134Z,3.25
2023-03-18T12:42:57.546Z,0.70
2023-03-18T12:48:04.565Z,2.07
2023-03-18T12:53:17.241Z,1.70
2023-03-18T12:58:24.343Z,4.97
2023-03-18T13:03:51.188Z,3.28
2023-03-18T13:09:26.944Z,3.97
2023-03-18T13:14:58.573Z,3.23
2023-03-18T13:20:03.533Z,2.80
2023-03-18T13:25:23.759Z,3.90
2023-03-18T13:30:41.564Z,4.85
2023-03-18T13:36:04.223Z,2.67
2023-03-18T13:41:14.114Z,3.90
2023-03-18T13:46:27.579Z,2.42
2023-03-18T13:51:29.760Z,2.40
2023-03-18T13:56:40.484Z,2.67
2023-03-18T14:01:49.691Z,3.88
2023-03-18T14:07:11.635Z,1.98
2023-03-18T14:12:19.062Z,1.17
2023-03-18T14:17:46.643Z,2.33
2023-03-18T14:23:14.778Z,5.53
2023-03-18T14:28:20.696Z,5.80
2023-03-18T14:33:22.770Z,2.22
2023-03-18T14:38:47.238Z,8.90
2023-03-18T14:44:24.237Z,8.70
2023-03-18T14:49:46.004Z,3.25
2023-03-18T14:54:50.569Z,7.97
2023-03-18T14:59:52.757Z,3.95
2023-03-18T15:04:58.076Z,8.38
2023-03-18T15:10:08.691Z,4.53
2023-03-18T15:15:15.420Z,3.55
2023-03-18T15:20:17.589Z,3.05
2023-03-18T15:25:21.027Z,3.65
2023-03-18T15:30:26.932Z,2.47
2023-03-18T15:35:31.683Z,2.83
2023-03-18T15:40:52.577Z,5.83
2023-03-18T15:46:00.659Z,3.92
2023-03-18T15:51:05.582Z,4.95
2023-03-18T15:56:16.430Z,5.03
2023-03-18T16:01:19.699Z,3.22
2023-03-18T16:06:22.853Z,5.40
2023-03-18T16:11:26.182Z,5.47
2023-03-18T16:16:30.064Z,6.40
2023-03-18T16:21:32.124Z,5.88
2023-03-18T16:26:34.390Z,3.92
2023-03-18T16:31:36.726Z,6.50
2023-03-18T16:36:39.807Z,6.72
2023-03-18T16:41:42.411Z,5.88
2023-03-18T16:46:51.700Z,7.68
2023-03-18T16:51:54.647Z,4.03
2023-03-18T16:56:58.914Z,6.80
2023-03-18T17:02:03.994Z,6.20
2023-03-18T17:07:06.190Z,6.90
2023-03-18T17:12:08.768Z,5.50
2023-03-18T17:17:33.096Z,4.97
2023-03-18T17:22:35.272Z,5.38
2023-03-18T17:27:46.037Z,8.05
2023-03-18T17:32:49.470Z,7.88
2023-03-18T17:37:53.653Z,3.90
2023-03-18T17:42:56.435Z,5.30
2023-03-18T17:48:14.146Z,6.38
2023-03-18T17:53:37.828Z,4.43
2023-03-18T17:58:46.043Z,4.93
2023-03-18T18:03:51.216Z,7.95
2023-03-18T18:08:59.614Z,5.93
2023-03-18T18:14:25.571Z,3.55
2023-03-18T18:19:31.084Z,7.50
2023-03-18T18:24:34.269Z,8.27
2023-03-18T18:29:41.839Z,11.85
2023-03-18T18:34:45.981Z,9.35
2023-03-18T18:39:49.684Z,9.40
2023-03-18T18:44:53.216Z,11.43
2023-03-18T18:49:56.910Z,12.63
2023-03-18T18:55:00.922Z,7.50
2023-03-18T19:00:11.550Z,7.93
2023-03-18T19:05:14.989Z,10.20
2023-03-18T19:10:20.144Z,9.15
2023-03-18T19:15:24.609Z,9.67
2023-03-18T19:20:31.227Z,8.35
2023-03-18T19:25:36.254Z,10.70
2023-03-18T19:30:39.808Z,10.70
2023-03-18T19:35:44.696Z,12.40
2023-03-18T19:40:50.438Z,11.35
2023-03-18T19:45:53.475Z,10.15
2023-03-18T19:50:57.888Z,8.13
2023-03-18T19:56:00.487Z,9.68
2023-03-18T20:01:04.186Z,7.95
2023-03-18T20:06:06.543Z,12.35
2023-03-18T20:11:16.022Z,5.00
2023-03-18T20:16:19.432Z,6.80
2023-03-18T20:21:30.954Z,4.72
2023-03-18T20:26:33.062Z,5.65
2023-03-18T20:31:35.250Z,5.03
2023-03-18T20:36:38.531Z,2.75
2023-03-18T20:41:40.846Z,1.52
2023-03-18T20:46:43.038Z,3.42
2023-03-18T20:51:45.811Z,2.65
2023-03-18T20:56:47.905Z,2.95
2023-03-18T21:01:51.152Z,2.75
2023-03-18T21:06:53.277Z,4.43
2023-03-18T21:11:55.705Z,4.75
2023-03-18T21:16:58.020Z,5.25
2023-03-18T21:22:00.413Z,7.35
2023-03-18T21:27:05.222Z,5.72
2023-03-18T21:32:19.462Z,4.05
2023-03-18T21:37:24.364Z,1.83
2023-03-18T21:42:28.654Z,2.30
2023-03-18T21:47:30.929Z,3.67
2023-03-18T21:52:36.224Z,1.00
2023-03-18T21:57:38.522Z,2.60
2023-03-18T22:02:40.612Z,2.88
2023-03-18T22:07:42.761Z,2.30
2023-03-18T22:12:45.264Z,2.45
2023-03-18T22:17:47.406Z,8.10
2023-03-18T22:22:49.497Z,7.72
2023-03-18T22:27:51.585Z,3.30
2023-03-18T22:32:54.129Z,3.58
2023-03-18T22:37:56.692Z,4.20
2023-03-18T22:43:00.941Z,4.78
2023-03-18T22:48:04.661Z,3.20
2023-03-18T22:53:09.063Z,2.22
2023-03-18T22:58:22.577Z,3.13
2023-03-18T23:03:31.327Z,3.10
2023-03-18T23:08:33.838Z,4.40
2023-03-18T23:13:39.039Z,3.75
2023-03-18T23:18:41.298Z,2.72
2023-03-18T23:23:43.552Z,1.90
2023-03-18T23:28:46.059Z,2.03
2023-03-18T23:33:48.289Z,5.25
2023-03-18T23:38:50.717Z,2.45
2023-03-18T23:43:52.856Z,3.20
2023-03-18T23:48:54.928Z,3.72
2023-03-18T23:53:57.089Z,2.03
2023-03-18T23:58:59.334Z,5.22
